sensor_id;sensor_type;location;lat;lon;timestamp;pressure;altitude;pressure_sealevel;temperature;humidity
80139;BME280;69467;59.842;17.604;2024-01-27T00:01:43;100433.88;;;0.09;100.00
80139;BME280;69467;59.842;17.604;2024-01-27T00:04:09;100444.63;;;0.09;100.00
80139;BME280;69467;59.842;17.604;2024-01-27T00:06:34;100446.31;;;0.10;100.00
80139;BME280;69467;59.842;17.604;2024-01-27T00:08:59;100447.13;;;0.11;100.00
80139;BME280;69467;59.842;17.604;2024-01-27T00:11:24;100453.75;;;0.08;100.00
80139;BME280;69467;59.842;17.604;2024-01-27T00:13:50;100455.41;;;0.09;100.00
80139;BME280;69467;59.842;17.604;2024-01-27T00:16:15;100460.78;;;0.09;100.00
80139;BME280;69467;59.842;17.604;2024-01-27T00:18:40;100469.69;;;0.10;100.00
80139;BME280;69467;59.842;17.604;2024-01-27T00:21:06;100480.28;;;0.11;100.00
80139;BME280;69467;59.842;17.604;2024-01-27T00:23:31;100480.28;;;0.11;100.00
80139;BME280;69467;59.842;17.604;2024-01-27T00:25:57;100490.03;;;0.12;100.00
80139;BME280;69467;59.842;17.604;2024-01-27T00:28:22;100493.53;;;0.13;100.00
80139;BME280;69467;59.842;17.604;2024-01-27T00:30:48;100492.72;;;0.12;100.00
80139;BME280;69467;59.842;17.604;2024-01-27T00:33:13;100501.41;;;0.14;100.00
80139;BME280;69467;59.842;17.604;2024-01-27T00:35:38;100498.72;;;0.14;100.00
80139;BME280;69467;59.842;17.604;2024-01-27T00:38:04;100510.50;;;0.13;100.00
80139;BME280;69467;59.842;17.604;2024-01-27T00:40:29;100511.16;;;0.15;100.00
80139;BME280;69467;59.842;17.604;2024-01-27T00:42:54;100513.03;;;0.15;100.00
80139;BME280;69467;59.842;17.604;2024-01-27T00:45:19;100519.44;;;0.14;100.00
80139;BME280;69467;59.842;17.604;2024-01-27T00:47:47;100522.97;;;0.14;100.00
80139;BME280;69467;59.842;17.604;2024-01-27T00:50:12;100525.44;;;0.16;100.00
80139;BME280;69467;59.842;17.604;2024-01-27T00:52:38;100540.78;;;0.15;100.00
80139;BME280;69467;59.842;17.604;2024-01-27T00:55:04;100537.28;;;0.15;100.00
80139;BME280;69467;59.842;17.604;2024-01-27T00:57:29;100546.16;;;0.15;100.00
80139;BME280;69467;59.842;17.604;2024-01-27T00:59:54;100545.34;;;0.15;100.00
80139;BME280;69467;59.842;17.604;2024-01-27T01:02:20;100557.97;;;0.14;100.00
80139;BME280;69467;59.842;17.604;2024-01-27T01:04:45;100563.56;;;0.13;100.00
80139;BME280;69467;59.842;17.604;2024-01-27T01:07:10;100567.72;;;0.15;100.00
80139;BME280;69467;59.842;17.604;2024-01-27T01:09:35;100563.56;;;0.13;100.00
80139;BME280;69467;59.842;17.604;2024-01-27T01:12:01;100561.88;;;0.12;100.00
80139;BME280;69467;59.842;17.604;2024-01-27T01:14:27;100578.69;;;0.14;100.00
80139;BME280;69467;59.842;17.604;2024-01-27T01:16:52;100584.28;;;0.12;100.00
80139;BME280;69467;59.842;17.604;2024-01-27T01:19:17;100596.69;;;0.13;100.00
80139;BME280;69467;59.842;17.604;2024-01-27T01:21:43;100604.97;;;0.12;100.00
80139;BME280;69467;59.842;17.604;2024-01-27T01:24:08;100604.16;;;0.11;100.00
80139;BME280;69467;59.842;17.604;2024-01-27T01:26:34;100601.47;;;0.11;100.00
80139;BME280;69467;59.842;17.604;2024-01-27T01:28:59;100603.31;;;0.11;100.00
80139;BME280;69467;59.842;17.604;2024-01-27T01:31:24;100612.41;;;0.10;100.00
80139;BME280;69467;59.842;17.604;2024-01-27T01:33:49;100618.84;;;0.09;100.00
80139;BME280;69467;59.842;17.604;2024-01-27T01:36:15;100634.78;;;0.10;100.00
80139;BME280;69467;59.842;17.604;2024-01-27T01:38:40;100644.72;;;0.10;100.00
80139;BME280;69467;59.842;17.604;2024-01-27T01:41:05;100649.28;;;0.09;100.00
80139;BME280;69467;59.842;17.604;2024-01-27T01:43:31;100654.66;;;0.09;100.00
80139;BME280;69467;59.842;17.604;2024-01-27T01:45:56;100663.78;;;0.08;100.00
80139;BME280;69467;59.842;17.604;2024-01-27T01:48:21;100657.75;;;0.06;100.00
80139;BME280;69467;59.842;17.604;2024-01-27T01:50:47;100668.72;;;0.05;100.00
80139;BME280;69467;59.842;17.604;2024-01-27T01:53:12;100679.88;;;0.02;100.00
80139;BME280;69467;59.842;17.604;2024-01-27T01:55:38;100675.88;;;-0.03;100.00
80139;BME280;69467;59.842;17.604;2024-01-27T01:58:04;100689.34;;;-0.03;100.00
80139;BME280;69467;59.842;17.604;2024-01-27T02:00:29;100703.88;;;-0.04;100.00
80139;BME280;69467;59.842;17.604;2024-01-27T02:02:54;100706.72;;;-0.05;100.00
80139;BME280;69467;59.842;17.604;2024-01-27T02:05:20;100712.50;;;-0.08;100.00
80139;BME280;69467;59.842;17.604;2024-01-27T02:07:45;100707.13;;;-0.08;100.00
80139;BME280;69467;59.842;17.604;2024-01-27T02:10:14;100719.94;;;-0.10;100.00
80139;BME280;69467;59.842;17.604;2024-01-27T02:12:42;100721.16;;;-0.13;100.00
80139;BME280;69467;59.842;17.604;2024-01-27T02:15:11;100728.56;;;-0.15;100.00
80139;BME280;69467;59.842;17.604;2024-01-27T02:17:39;100726.28;;;-0.18;100.00
80139;BME280;69467;59.842;17.604;2024-01-27T02:20:05;100735.56;;;-0.21;100.00
80139;BME280;69467;59.842;17.604;2024-01-27T02:22:31;100745.50;;;-0.21;100.00
80139;BME280;69467;59.842;17.604;2024-01-27T02:24:57;100761.19;;;-0.25;100.00
80139;BME280;69467;59.842;17.604;2024-01-27T02:27:22;100763.25;;;-0.27;100.00
80139;BME280;69467;59.842;17.604;2024-01-27T02:29:47;100770.00;;;-0.31;100.00
80139;BME280;69467;59.842;17.604;2024-01-27T02:32:12;100770.41;;;-0.34;100.00
80139;BME280;69467;59.842;17.604;2024-01-27T02:34:38;100765.22;;;-0.36;100.00
80139;BME280;69467;59.842;17.604;2024-01-27T02:37:03;100777.38;;;-0.40;100.00
80139;BME280;69467;59.842;17.604;2024-01-27T02:39:28;100782.94;;;-0.41;100.00
80139;BME280;69467;59.842;17.604;2024-01-27T02:41:53;100805.69;;;-0.44;100.00
80139;BME280;69467;59.842;17.604;2024-01-27T02:44:19;100810.78;;;-0.49;100.00
80139;BME280;69467;59.842;17.604;2024-01-27T02:46:44;100819.41;;;-0.54;100.00
80139;BME280;69467;59.842;17.604;2024-01-27T02:49:09;100825.19;;;-0.57;100.00
80139;BME280;69467;59.842;17.604;2024-01-27T02:51:35;100819.34;;;-0.60;100.00
80139;BME280;69467;59.842;17.604;2024-01-27T02:54:00;100828.97;;;-0.66;100.00
80139;BME280;69467;59.842;17.604;2024-01-27T02:56:25;100835.91;;;-0.72;100.00
80139;BME280;69467;59.842;17.604;2024-01-27T02:58:50;100845.19;;;-0.74;100.00
80139;BME280;69467;59.842;17.604;2024-01-27T03:01:16;100840.53;;;-0.81;100.00
80139;BME280;69467;59.842;17.604;2024-01-27T03:03:41;100847.31;;;-0.85;100.00
80139;BME280;69467;59.842;17.604;2024-01-27T03:06:06;100850.19;;;-0.86;100.00
80139;BME280;69467;59.842;17.604;2024-01-27T03:08:32;100857.41;;;-0.87;100.00
80139;BME280;69467;59.842;17.604;2024-01-27T03:10:57;100850.56;;;-0.89;100.00
80139;BME280;69467;59.842;17.604;2024-01-27T03:13:22;100868.75;;;-0.91;100.00
80139;BME280;69467;59.842;17.604;2024-01-27T03:15:48;100868.91;;;-0.93;100.00
80139;BME280;69467;59.842;17.604;2024-01-27T03:18:14;100879.03;;;-0.95;100.00
80139;BME280;69467;59.842;17.604;2024-01-27T03:20:39;100874.47;;;-0.94;100.00
80139;BME280;69467;59.842;17.604;2024-01-27T03:23:04;100876.69;;;-0.98;100.00
80139;BME280;69467;59.842;17.604;2024-01-27T03:25:29;100890.97;;;-0.98;100.00
80139;BME280;69467;59.842;17.604;2024-01-27T03:27:55;100894.00;;;-1.01;100.00
80139;BME280;69467;59.842;17.604;2024-01-27T03:30:20;100898.09;;;-1.05;100.00
80139;BME280;69467;59.842;17.604;2024-01-27T03:32:46;100903.28;;;-1.03;100.00
80139;BME280;69467;59.842;17.604;2024-01-27T03:35:11;100904.47;;;-1.06;100.00
80139;BME280;69467;59.842;17.604;2024-01-27T03:37:36;100911.88;;;-1.08;100.00
80139;BME280;69467;59.842;17.604;2024-01-27T03:40:01;100925.50;;;-1.09;100.00
80139;BME280;69467;59.842;17.604;2024-01-27T03:42:27;100932.91;;;-1.11;100.00
80139;BME280;69467;59.842;17.604;2024-01-27T03:44:52;100943.00;;;-1.14;100.00
80139;BME280;69467;59.842;17.604;2024-01-27T03:47:17;100944.19;;;-1.16;100.00
80139;BME280;69467;59.842;17.604;2024-01-27T03:49:43;100953.63;;;-1.20;100.00
80139;BME280;69467;59.842;17.604;2024-01-27T03:52:08;100948.44;;;-1.22;100.00
80139;BME280;69467;59.842;17.604;2024-01-27T03:54:35;100948.44;;;-1.22;100.00
80139;BME280;69467;59.842;17.604;2024-01-27T03:57:02;100948.78;;;-1.25;100.00
80139;BME280;69467;59.842;17.604;2024-01-27T03:59:27;100952.50;;;-1.26;100.00
80139;BME280;69467;59.842;17.604;2024-01-27T04:01:52;100959.06;;;-1.28;100.00
80139;BME280;69467;59.842;17.604;2024-01-27T04:04:18;100977.22;;;-1.31;100.00
80139;BME280;69467;59.842;17.604;2024-01-27T04:06:43;100977.41;;;-1.32;100.00
80139;BME280;69467;59.842;17.604;2024-01-27T04:09:08;100980.44;;;-1.35;100.00
80139;BME280;69467;59.842;17.604;2024-01-27T04:11:34;100989.69;;;-1.38;100.00
80139;BME280;69467;59.842;17.604;2024-01-27T04:13:59;100991.50;;;-1.38;100.00
80139;BME280;69467;59.842;17.604;2024-01-27T04:16:25;100991.88;;;-1.41;100.00
80139;BME280;69467;59.842;17.604;2024-01-27T04:18:50;100997.59;;;-1.44;100.00
80139;BME280;69467;59.842;17.604;2024-01-27T04:21:15;101004.66;;;-1.43;100.00
80139;BME280;69467;59.842;17.604;2024-01-27T04:23:40;101012.06;;;-1.46;100.00
80139;BME280;69467;59.842;17.604;2024-01-27T04:26:06;101014.09;;;-1.48;100.00
80139;BME280;69467;59.842;17.604;2024-01-27T04:28:31;101017.09;;;-1.51;100.00
80139;BME280;69467;59.842;17.604;2024-01-27T04:30:57;101028.88;;;-1.52;100.00
80139;BME280;69467;59.842;17.604;2024-01-27T04:33:22;101034.25;;;-1.52;100.00
80139;BME280;69467;59.842;17.604;2024-01-27T04:35:47;101035.25;;;-1.53;100.00
80139;BME280;69467;59.842;17.604;2024-01-27T04:38:12;101038.28;;;-1.56;100.00
80139;BME280;69467;59.842;17.604;2024-01-27T04:40:38;101038.28;;;-1.56;100.00
80139;BME280;69467;59.842;17.604;2024-01-27T04:43:03;101041.97;;;-1.57;100.00
80139;BME280;69467;59.842;17.604;2024-01-27T04:45:28;101044.03;;;-1.59;100.00
80139;BME280;69467;59.842;17.604;2024-01-27T04:47:54;101053.09;;;-1.60;100.00
80139;BME280;69467;59.842;17.604;2024-01-27T04:50:19;101043.53;;;-1.63;100.00
80139;BME280;69467;59.842;17.604;2024-01-27T04:52:45;101043.72;;;-1.64;100.00
80139;BME280;69467;59.842;17.604;2024-01-27T04:55:10;101044.72;;;-1.65;100.00
80139;BME280;69467;59.842;17.604;2024-01-27T04:57:36;101062.84;;;-1.67;100.00
80139;BME280;69467;59.842;17.604;2024-01-27T05:00:01;101066.53;;;-1.68;100.00
80139;BME280;69467;59.842;17.604;2024-01-27T05:02:27;101071.06;;;-1.69;100.00
80139;BME280;69467;59.842;17.604;2024-01-27T05:04:52;101072.06;;;-1.70;100.00
80139;BME280;69467;59.842;17.604;2024-01-27T05:07:17;101080.47;;;-1.73;100.00
80139;BME280;69467;59.842;17.604;2024-01-27T05:09:42;101074.44;;;-1.75;100.00
80139;BME280;69467;59.842;17.604;2024-01-27T05:12:08;101086.38;;;-1.77;100.00
80139;BME280;69467;59.842;17.604;2024-01-27T05:14:33;101101.81;;;-1.80;100.00
80139;BME280;69467;59.842;17.604;2024-01-27T05:16:59;101095.75;;;-1.82;100.00
80139;BME280;69467;59.842;17.604;2024-01-27T05:19:24;101095.94;;;-1.83;100.00
80139;BME280;69467;59.842;17.604;2024-01-27T05:21:49;101099.97;;;-1.87;100.00
80139;BME280;69467;59.842;17.604;2024-01-27T05:24:14;101097.63;;;-1.90;100.00
80139;BME280;69467;59.842;17.604;2024-01-27T05:26:40;101100.66;;;-1.93;100.00
80139;BME280;69467;59.842;17.604;2024-01-27T05:29:05;101114.09;;;-1.93;100.00
80139;BME280;69467;59.842;17.604;2024-01-27T05:31:30;101114.25;;;-1.95;100.00
80139;BME280;69467;59.842;17.604;2024-01-27T05:33:56;101110.41;;;-2.01;100.00
80139;BME280;69467;59.842;17.604;2024-01-27T05:36:21;101117.44;;;-2.00;100.00
80139;BME280;69467;59.842;17.604;2024-01-27T05:38:47;101113.91;;;-2.00;100.00
80139;BME280;69467;59.842;17.604;2024-01-27T05:41:12;101121.31;;;-2.02;100.00
80139;BME280;69467;59.842;17.604;2024-01-27T05:43:37;101123.31;;;-2.04;100.00
80139;BME280;69467;59.842;17.604;2024-01-27T05:46:03;101123.31;;;-2.04;100.00
80139;BME280;69467;59.842;17.604;2024-01-27T05:48:28;101128.00;;;-2.06;100.00
80139;BME280;69467;59.842;17.604;2024-01-27T05:50:57;101136.06;;;-2.06;100.00
80139;BME280;69467;59.842;17.604;2024-01-27T05:53:22;101135.22;;;-2.07;100.00
80139;BME280;69467;59.842;17.604;2024-01-27T05:55:47;101151.50;;;-2.08;100.00
80139;BME280;69467;59.842;17.604;2024-01-27T05:58:13;101149.66;;;-2.08;100.00
80139;BME280;69467;59.842;17.604;2024-01-27T06:00:38;101159.69;;;-2.10;100.00
80139;BME280;69467;59.842;17.604;2024-01-27T06:03:04;101169.63;;;-2.11;100.00
80139;BME280;69467;59.842;17.604;2024-01-27T06:05:29;101171.63;;;-2.13;100.00
80139;BME280;69467;59.842;17.604;2024-01-27T06:07:54;101185.22;;;-2.14;100.00
80139;BME280;69467;59.842;17.604;2024-01-27T06:10:20;101181.00;;;-2.17;100.00
80139;BME280;69467;59.842;17.604;2024-01-27T06:12:45;101173.97;;;-2.18;100.00
80139;BME280;69467;59.842;17.604;2024-01-27T06:15:10;101173.28;;;-2.20;100.00
80139;BME280;69467;59.842;17.604;2024-01-27T06:17:35;101176.31;;;-2.23;100.00
80139;BME280;69467;59.842;17.604;2024-01-27T06:20:01;101187.03;;;-2.23;100.00
80139;BME280;69467;59.842;17.604;2024-01-27T06:22:26;101192.59;;;-2.24;100.00
80139;BME280;69467;59.842;17.604;2024-01-27T06:24:52;101182.34;;;-2.29;100.00
80139;BME280;69467;59.842;17.604;2024-01-27T06:27:17;101189.22;;;-2.27;100.00
80139;BME280;69467;59.842;17.604;2024-01-27T06:29:42;101188.41;;;-2.27;100.00
80139;BME280;69467;59.842;17.604;2024-01-27T06:32:09;101191.22;;;-2.29;100.00
80139;BME280;69467;59.842;17.604;2024-01-27T06:34:34;101194.25;;;-2.32;100.00
80139;BME280;69467;59.842;17.604;2024-01-27T06:36:59;101195.25;;;-2.33;100.00
80139;BME280;69467;59.842;17.604;2024-01-27T06:39:25;101202.78;;;-2.36;100.00
80139;BME280;69467;59.842;17.604;2024-01-27T06:41:50;101206.47;;;-2.37;100.00
80139;BME280;69467;59.842;17.604;2024-01-27T06:44:15;101209.31;;;-2.39;100.00
80139;BME280;69467;59.842;17.604;2024-01-27T06:46:41;101214.00;;;-2.41;100.00
80139;BME280;69467;59.842;17.604;2024-01-27T06:49:06;101225.72;;;-2.42;100.00
80139;BME280;69467;59.842;17.604;2024-01-27T06:51:31;101226.91;;;-2.45;100.00
80139;BME280;69467;59.842;17.604;2024-01-27T06:53:56;101235.13;;;-2.46;100.00
80139;BME280;69467;59.842;17.604;2024-01-27T06:56:22;101245.03;;;-2.47;100.00
80139;BME280;69467;59.842;17.604;2024-01-27T06:58:47;101245.16;;;-2.48;100.00
80139;BME280;69467;59.842;17.604;2024-01-27T07:01:12;101247.00;;;-2.49;100.00
80139;BME280;69467;59.842;17.604;2024-01-27T07:03:37;101253.53;;;-2.51;100.00
80139;BME280;69467;59.842;17.604;2024-01-27T07:06:04;101260.75;;;-2.52;100.00
80139;BME280;69467;59.842;17.604;2024-01-27T07:08:30;101264.44;;;-2.53;100.00
80139;BME280;69467;59.842;17.604;2024-01-27T07:10:56;101263.59;;;-2.53;100.00
80139;BME280;69467;59.842;17.604;2024-01-27T07:13:21;101272.63;;;-2.54;100.00
80139;BME280;69467;59.842;17.604;2024-01-27T07:15:47;101282.69;;;-2.56;100.00
80139;BME280;69467;59.842;17.604;2024-01-27T07:18:12;101287.38;;;-2.59;100.00
80139;BME280;69467;59.842;17.604;2024-01-27T07:20:37;101287.53;;;-2.60;100.00
80139;BME280;69467;59.842;17.604;2024-01-27T07:23:02;101294.59;;;-2.59;100.00
80139;BME280;69467;59.842;17.604;2024-01-27T07:25:28;101298.44;;;-2.62;100.00
80139;BME280;69467;59.842;17.604;2024-01-27T07:27:54;101299.59;;;-2.64;100.00
80139;BME280;69467;59.842;17.604;2024-01-27T07:30:20;101316.34;;;-2.62;100.00
80139;BME280;69467;59.842;17.604;2024-01-27T07:32:45;101312.16;;;-2.65;100.00
80139;BME280;69467;59.842;17.604;2024-01-27T07:35:10;101317.34;;;-2.63;100.00
80139;BME280;69467;59.842;17.604;2024-01-27T07:37:36;101328.25;;;-2.65;100.00
80139;BME280;69467;59.842;17.604;2024-01-27T07:40:01;101327.06;;;-2.62;100.00
80139;BME280;69467;59.842;17.604;2024-01-27T07:42:27;101328.06;;;-2.63;100.00
80139;BME280;69467;59.842;17.604;2024-01-27T07:44:52;101335.97;;;-2.62;100.00
80139;BME280;69467;59.842;17.604;2024-01-27T07:47:18;101334.13;;;-2.61;100.00
80139;BME280;69467;59.842;17.604;2024-01-27T07:49:43;101333.97;;;-2.60;100.00
80139;BME280;69467;59.842;17.604;2024-01-27T07:52:09;101341.00;;;-2.59;100.00
80139;BME280;69467;59.842;17.604;2024-01-27T07:54:35;101352.44;;;-2.56;100.00
80139;BME280;69467;59.842;17.604;2024-01-27T07:57:04;101346.19;;;-2.57;100.00
80139;BME280;69467;59.842;17.604;2024-01-27T07:59:29;101355.63;;;-2.53;100.00
80139;BME280;69467;59.842;17.604;2024-01-27T08:01:55;101373.75;;;-2.47;100.00
80139;BME280;69467;59.842;17.604;2024-01-27T08:04:20;101378.16;;;-2.37;100.00
80139;BME280;69467;59.842;17.604;2024-01-27T08:06:47;101381.81;;;-2.38;100.00
80139;BME280;69467;59.842;17.604;2024-01-27T08:09:13;101391.72;;;-2.39;100.00
80139;BME280;69467;59.842;17.604;2024-01-27T08:11:38;101393.25;;;-2.36;100.00
80139;BME280;69467;59.842;17.604;2024-01-27T08:14:03;101403.34;;;-2.30;100.00
80139;BME280;69467;59.842;17.604;2024-01-27T08:16:28;101396.97;;;-2.29;100.00
80139;BME280;69467;59.842;17.604;2024-01-27T08:18:54;101396.34;;;-2.23;100.00
80139;BME280;69467;59.842;17.604;2024-01-27T08:21:19;101396.16;;;-2.21;100.00
80139;BME280;69467;59.842;17.604;2024-01-27T08:23:44;101408.94;;;-2.15;100.00
80139;BME280;69467;59.842;17.604;2024-01-27T08:26:10;101417.50;;;-2.12;100.00
80139;BME280;69467;59.842;17.604;2024-01-27T08:28:35;101418.84;;;-2.07;100.00
80139;BME280;69467;59.842;17.604;2024-01-27T08:31:01;101418.22;;;-2.01;100.00
80139;BME280;69467;59.842;17.604;2024-01-27T08:33:26;101417.44;;;-1.93;100.00
80139;BME280;69467;59.842;17.604;2024-01-27T08:35:52;101424.50;;;-1.84;100.00
80139;BME280;69467;59.842;17.604;2024-01-27T08:38:17;101431.91;;;-1.78;100.00
80139;BME280;69467;59.842;17.604;2024-01-27T08:40:42;101433.94;;;-1.72;100.00
80139;BME280;69467;59.842;17.604;2024-01-27T08:43:08;101444.41;;;-1.44;100.00
80139;BME280;69467;59.842;17.604;2024-01-27T08:45:34;101439.06;;;-0.78;100.00
80139;BME280;69467;59.842;17.604;2024-01-27T08:48:00;101429.38;;;0.25;100.00
80139;BME280;69467;59.842;17.604;2024-01-27T08:50:25;101429.75;;;1.15;100.00
80139;BME280;69467;59.842;17.604;2024-01-27T08:52:50;101417.19;;;1.90;100.00
80139;BME280;69467;59.842;17.604;2024-01-27T08:55:16;101411.75;;;3.29;100.00
80139;BME280;69467;59.842;17.604;2024-01-27T08:57:47;101409.81;;;4.34;100.00
80139;BME280;69467;59.842;17.604;2024-01-27T09:00:12;101414.53;;;4.94;100.00
80139;BME280;69467;59.842;17.604;2024-01-27T09:02:38;101408.69;;;5.51;100.00
80139;BME280;69467;59.842;17.604;2024-01-27T09:05:03;101419.03;;;6.08;100.00
80139;BME280;69467;59.842;17.604;2024-01-27T09:07:29;101426.22;;;6.41;100.00
80139;BME280;69467;59.842;17.604;2024-01-27T09:09:54;101431.84;;;7.35;96.31
80139;BME280;69467;59.842;17.604;2024-01-27T09:12:19;101430.25;;;7.28;78.66
80139;BME280;69467;59.842;17.604;2024-01-27T09:14:46;101419.50;;;8.51;96.92
80139;BME280;69467;59.842;17.604;2024-01-27T09:17:11;101416.94;;;8.68;71.39
80139;BME280;69467;59.842;17.604;2024-01-27T09:19:37;101422.50;;;9.15;65.72
80139;BME280;69467;59.842;17.604;2024-01-27T09:22:03;101423.84;;;9.84;60.48
80139;BME280;69467;59.842;17.604;2024-01-27T09:24:28;101422.50;;;10.97;71.07
80139;BME280;69467;59.842;17.604;2024-01-27T09:26:53;101423.09;;;11.50;63.97
80139;BME280;69467;59.842;17.604;2024-01-27T09:29:18;101420.41;;;12.12;60.43
80139;BME280;69467;59.842;17.604;2024-01-27T09:31:45;101412.75;;;12.63;58.56
80139;BME280;69467;59.842;17.604;2024-01-27T09:34:10;101419.47;;;12.78;50.10
80139;BME280;69467;59.842;17.604;2024-01-27T09:36:35;101420.78;;;13.67;54.73
80139;BME280;69467;59.842;17.604;2024-01-27T09:39:01;101428.59;;;13.86;46.21
80139;BME280;69467;59.842;17.604;2024-01-27T09:41:27;101410.94;;;14.45;46.27
80139;BME280;69467;59.842;17.604;2024-01-27T09:43:55;101417.91;;;14.79;50.46
80139;BME280;69467;59.842;17.604;2024-01-27T09:46:22;101426.56;;;14.24;48.56
80139;BME280;69467;59.842;17.604;2024-01-27T09:48:47;101433.84;;;10.72;48.53
80139;BME280;69467;59.842;17.604;2024-01-27T09:51:13;101421.81;;;9.44;57.12
80139;BME280;69467;59.842;17.604;2024-01-27T09:53:38;101425.19;;;7.31;60.94
80139;BME280;69467;59.842;17.604;2024-01-27T09:56:04;101429.25;;;6.90;67.82
80139;BME280;69467;59.842;17.604;2024-01-27T09:58:31;101415.53;;;6.39;71.13
80139;BME280;69467;59.842;17.604;2024-01-27T10:00:57;101412.03;;;6.64;72.61
80139;BME280;69467;59.842;17.604;2024-01-27T10:03:23;101421.41;;;6.75;69.76
80139;BME280;69467;59.842;17.604;2024-01-27T10:05:50;101427.88;;;7.06;66.95
80139;BME280;69467;59.842;17.604;2024-01-27T10:08:15;101451.31;;;5.24;77.75
80139;BME280;69467;59.842;17.604;2024-01-27T10:10:41;101450.19;;;4.64;89.86
80139;BME280;69467;59.842;17.604;2024-01-27T10:13:06;101437.03;;;4.61;92.28
80139;BME280;69467;59.842;17.604;2024-01-27T10:15:31;101445.81;;;3.73;100.00
80139;BME280;69467;59.842;17.604;2024-01-27T10:18:06;101458.47;;;4.01;100.00
80139;BME280;69467;59.842;17.604;2024-01-27T10:20:32;101458.81;;;3.91;100.00
80139;BME280;69467;59.842;17.604;2024-01-27T10:22:57;101452.50;;;6.02;80.81
80139;BME280;69467;59.842;17.604;2024-01-27T10:25:22;101450.88;;;8.23;65.27
80139;BME280;69467;59.842;17.604;2024-01-27T10:27:48;101459.28;;;9.43;56.07
80139;BME280;69467;59.842;17.604;2024-01-27T10:30:16;101450.22;;;10.02;57.08
80139;BME280;69467;59.842;17.604;2024-01-27T10:32:42;101444.66;;;11.81;49.82
80139;BME280;69467;59.842;17.604;2024-01-27T10:35:08;101459.09;;;12.54;46.44
80139;BME280;69467;59.842;17.604;2024-01-27T10:37:33;101451.47;;;13.49;47.48
80139;BME280;69467;59.842;17.604;2024-01-27T10:40:02;101457.03;;;12.94;44.32
80139;BME280;69467;59.842;17.604;2024-01-27T10:42:28;101465.56;;;13.95;43.41
80139;BME280;69467;59.842;17.604;2024-01-27T10:44:57;101471.19;;;15.26;41.44
80139;BME280;69467;59.842;17.604;2024-01-27T10:47:24;101474.44;;;14.81;41.42
80139;BME280;69467;59.842;17.604;2024-01-27T10:49:50;101484.16;;;15.98;39.80
80139;BME280;69467;59.842;17.604;2024-01-27T10:52:16;101488.66;;;16.54;38.02
80139;BME280;69467;59.842;17.604;2024-01-27T10:54:43;101488.88;;;16.63;39.98
80139;BME280;69467;59.842;17.604;2024-01-27T10:57:10;101475.75;;;17.63;37.70
80139;BME280;69467;59.842;17.604;2024-01-27T10:59:36;101472.94;;;17.68;36.31
80139;BME280;69467;59.842;17.604;2024-01-27T11:02:03;101471.72;;;18.72;35.54
80139;BME280;69467;59.842;17.604;2024-01-27T11:04:29;101479.31;;;18.66;36.26
80139;BME280;69467;59.842;17.604;2024-01-27T11:06:57;101483.16;;;19.08;34.84
80139;BME280;69467;59.842;17.604;2024-01-27T11:09:23;101491.16;;;19.95;33.04
80139;BME280;69467;59.842;17.604;2024-01-27T11:11:49;101495.38;;;20.62;31.51
80139;BME280;69467;59.842;17.604;2024-01-27T11:14:14;101491.69;;;19.97;31.56
80139;BME280;69467;59.842;17.604;2024-01-27T11:16:40;101484.34;;;19.87;31.93
80139;BME280;69467;59.842;17.604;2024-01-27T11:19:13;101486.81;;;19.89;30.76
80139;BME280;69467;59.842;17.604;2024-01-27T11:21:38;101496.94;;;20.40;30.77
80139;BME280;69467;59.842;17.604;2024-01-27T11:24:13;101497.19;;;19.36;30.68
80139;BME280;69467;59.842;17.604;2024-01-27T11:26:39;101491.84;;;19.21;31.22
80139;BME280;69467;59.842;17.604;2024-01-27T11:29:07;101491.16;;;18.04;33.95
80139;BME280;69467;59.842;17.604;2024-01-27T11:31:34;101492.63;;;17.62;33.48
80139;BME280;69467;59.842;17.604;2024-01-27T11:34:00;101492.53;;;17.08;35.06
80139;BME280;69467;59.842;17.604;2024-01-27T11:36:25;101499.81;;;14.68;36.66
80139;BME280;69467;59.842;17.604;2024-01-27T11:38:52;101500.78;;;14.46;37.14
80139;BME280;69467;59.842;17.604;2024-01-27T11:41:27;101489.44;;;15.37;38.40
80139;BME280;69467;59.842;17.604;2024-01-27T11:43:56;101500.47;;;13.90;39.10
80139;BME280;69467;59.842;17.604;2024-01-27T11:46:22;101494.75;;;13.59;39.63
80139;BME280;69467;59.842;17.604;2024-01-27T11:48:48;101492.25;;;11.69;41.48
80139;BME280;69467;59.842;17.604;2024-01-27T11:51:14;101500.53;;;12.08;44.80
80139;BME280;69467;59.842;17.604;2024-01-27T11:53:39;101503.19;;;12.92;41.98
80139;BME280;69467;59.842;17.604;2024-01-27T11:56:05;101493.56;;;12.01;43.91
80139;BME280;69467;59.842;17.604;2024-01-27T11:58:30;101493.41;;;12.07;45.16
80139;BME280;69467;59.842;17.604;2024-01-27T12:00:56;101490.25;;;11.48;46.13
80139;BME280;69467;59.842;17.604;2024-01-27T12:03:21;101499.75;;;10.94;47.12
80139;BME280;69467;59.842;17.604;2024-01-27T12:05:47;101509.59;;;10.37;49.11
80139;BME280;69467;59.842;17.604;2024-01-27T12:08:12;101515.28;;;10.24;49.68
80139;BME280;69467;59.842;17.604;2024-01-27T12:10:37;101510.91;;;9.99;52.56
80139;BME280;69467;59.842;17.604;2024-01-27T12:13:03;101516.97;;;9.77;52.54
80139;BME280;69467;59.842;17.604;2024-01-27T12:15:28;101512.56;;;9.88;51.32
80139;BME280;69467;59.842;17.604;2024-01-27T12:17:53;101516.69;;;10.50;50.83
80139;BME280;69467;59.842;17.604;2024-01-27T12:20:19;101525.63;;;9.08;53.54
80139;BME280;69467;59.842;17.604;2024-01-27T12:22:44;101523.69;;;8.97;54.37
80139;BME280;69467;59.842;17.604;2024-01-27T12:25:12;101515.16;;;8.75;56.47
80139;BME280;69467;59.842;17.604;2024-01-27T12:27:40;101530.38;;;8.27;60.06